sensor_id;sensor_type;location;lat;lon;timestamp;pressure;altitude;pressure_sealevel;temperature;humidity
35649;BME280;21768;48.562;13.414;2022-12-07T00:01:27;97213.63;;;5.30;72.75
35649;BME280;21768;48.562;13.414;2022-12-07T00:03:55;97210.38;;;5.31;72.55
35649;BME280;21768;48.562;13.414;2022-12-07T00:06:36;97211.00;;;5.28;72.35
35649;BME280;21768;48.562;13.414;2022-12-07T00:09:07;97214.25;;;5.27;72.63
35649;BME280;21768;48.562;13.414;2022-12-07T00:11:34;97196.75;;;5.27;72.53
35649;BME280;21768;48.562;13.414;2022-12-07T00:14:02;97208.63;;;5.30;72.59
35649;BME280;21768;48.562;13.414;2022-12-07T00:16:31;97198.88;;;5.33;72.88
35649;BME280;21768;48.562;13.414;2022-12-07T00:18:57;97200.63;;;5.34;72.64
35649;BME280;21768;48.562;13.414;2022-12-07T00:21:26;97200.38;;;5.31;72.57
35649;BME280;21768;48.562;13.414;2022-12-07T00:23:53;97198.88;;;5.33;72.80
35649;BME280;21768;48.562;13.414;2022-12-07T00:26:27;97194.13;;;5.36;72.92
35649;BME280;21768;48.562;13.414;2022-12-07T00:28:55;97183.50;;;5.38;72.83
35649;BME280;21768;48.562;13.414;2022-12-07T00:31:23;97180.00;;;5.36;72.90
35649;BME280;21768;48.562;13.414;2022-12-07T00:33:48;97185.88;;;5.37;72.75
35649;BME280;21768;48.562;13.414;2022-12-07T00:36:19;97185.88;;;5.37;72.67
35649;BME280;21768;48.562;13.414;2022-12-07T00:38:45;97184.13;;;5.36;72.56
35649;BME280;21768;48.562;13.414;2022-12-07T00:41:18;97180.38;;;5.31;72.43
35649;BME280;21768;48.562;13.414;2022-12-07T00:43:45;97182.75;;;5.29;72.57
35649;BME280;21768;48.562;13.414;2022-12-07T00:46:12;97183.38;;;5.27;72.42
35649;BME280;21768;48.562;13.414;2022-12-07T00:48:38;97184.13;;;5.26;72.56
35649;BME280;21768;48.562;13.414;2022-12-07T00:51:03;97176.63;;;5.26;72.71
35649;BME280;21768;48.562;13.414;2022-12-07T00:53:29;97178.13;;;5.24;72.66
35649;BME280;21768;48.562;13.414;2022-12-07T00:55:55;97178.75;;;5.21;72.67
35649;BME280;21768;48.562;13.414;2022-12-07T00:58:22;97187.88;;;5.21;72.73
35649;BME280;21768;48.562;13.414;2022-12-07T01:00:48;97186.91;;;5.19;72.56
35649;BME280;21768;48.562;13.414;2022-12-07T01:03:15;97182.13;;;5.11;72.38
35649;BME280;21768;48.562;13.414;2022-12-07T01:05:49;97193.91;;;5.12;72.56
35649;BME280;21768;48.562;13.414;2022-12-07T01:08:14;97188.91;;;5.12;72.39
35649;BME280;21768;48.562;13.414;2022-12-07T01:10:40;97189.38;;;5.08;72.33
35649;BME280;21768;48.562;13.414;2022-12-07T01:13:05;97197.38;;;5.04;72.39
35649;BME280;21768;48.562;13.414;2022-12-07T01:15:31;97188.00;;;5.02;72.49
35649;BME280;21768;48.562;13.414;2022-12-07T01:17:56;97202.63;;;5.07;72.56
35649;BME280;21768;48.562;13.414;2022-12-07T01:20:22;97203.63;;;5.09;72.52
35649;BME280;21768;48.562;13.414;2022-12-07T01:22:47;97191.13;;;5.09;72.42
35649;BME280;21768;48.562;13.414;2022-12-07T01:25:12;97196.88;;;5.08;72.56
35649;BME280;21768;48.562;13.414;2022-12-07T01:27:38;97201.00;;;5.08;72.25
35649;BME280;21768;48.562;13.414;2022-12-07T01:30:05;97200.38;;;5.10;72.20
35649;BME280;21768;48.562;13.414;2022-12-07T01:32:31;97198.63;;;5.09;72.08
35649;BME280;21768;48.562;13.414;2022-12-07T01:34:57;97203.91;;;5.12;72.31
35649;BME280;21768;48.562;13.414;2022-12-07T01:37:22;97192.63;;;5.07;71.97
35649;BME280;21768;48.562;13.414;2022-12-07T01:39:49;97197.75;;;5.09;72.04
35649;BME280;21768;48.562;13.414;2022-12-07T01:42:14;97199.38;;;5.08;72.02
35649;BME280;21768;48.562;13.414;2022-12-07T01:45:37;97199.25;;;5.07;72.01
35649;BME280;21768;48.562;13.414;2022-12-07T01:47:53;97194.66;;;5.11;72.10
35649;BME280;21768;48.562;13.414;2022-12-07T01:50:21;97196.53;;;5.14;72.21
35649;BME280;21768;48.562;13.414;2022-12-07T01:52:49;97191.53;;;5.14;72.08
35649;BME280;21768;48.562;13.414;2022-12-07T01:55:17;97184.91;;;5.15;72.15
35649;BME280;21768;48.562;13.414;2022-12-07T01:57:48;97185.66;;;5.13;72.12
35649;BME280;21768;48.562;13.414;2022-12-07T02:00:16;97183.28;;;5.15;72.02
35649;BME280;21768;48.562;13.414;2022-12-07T02:02:47;97186.16;;;5.20;72.21
35649;BME280;21768;48.562;13.414;2022-12-07T02:05:13;97195.91;;;5.17;71.94
35649;BME280;21768;48.562;13.414;2022-12-07T02:07:39;97187.75;;;5.09;71.89
35649;BME280;21768;48.562;13.414;2022-12-07T02:10:32;97192.88;;;5.10;72.06
35649;BME280;21768;48.562;13.414;2022-12-07T02:13:21;97192.41;;;5.15;72.19
35649;BME280;21768;48.562;13.414;2022-12-07T02:18:29;97190.03;;;5.16;72.33
35649;BME280;21768;48.562;13.414;2022-12-07T02:21:11;97190.66;;;5.13;72.32
35649;BME280;21768;48.562;13.414;2022-12-07T02:29:14;97185.78;;;5.15;72.21
35649;BME280;21768;48.562;13.414;2022-12-07T02:31:49;97187.66;;;5.18;72.22
35649;BME280;21768;48.562;13.414;2022-12-07T02:34:34;97190.16;;;5.18;72.27
35649;BME280;21768;48.562;13.414;2022-12-07T02:37:09;97178.41;;;5.17;72.08
35649;BME280;21768;48.562;13.414;2022-12-07T02:39:56;97186.16;;;5.20;72.13
35649;BME280;21768;48.562;13.414;2022-12-07T02:42:28;97193.75;;;5.21;72.33
35649;BME280;21768;48.562;13.414;2022-12-07T02:44:55;97175.38;;;5.21;72.02
35649;BME280;21768;48.562;13.414;2022-12-07T02:47:21;97184.41;;;5.19;72.20
35649;BME280;21768;48.562;13.414;2022-12-07T02:49:50;97171.78;;;5.17;72.26
35649;BME280;21768;48.562;13.414;2022-12-07T02:52:16;97181.16;;;5.20;72.42
35649;BME280;21768;48.562;13.414;2022-12-07T02:54:41;97176.16;;;5.20;72.51
35649;BME280;21768;48.562;13.414;2022-12-07T03:00:34;97177.88;;;5.21;72.61
35649;BME280;21768;48.562;13.414;2022-12-07T03:03:08;97173.88;;;5.23;72.65
35649;BME280;21768;48.562;13.414;2022-12-07T03:06:00;97175.50;;;5.22;72.78
35649;BME280;21768;48.562;13.414;2022-12-07T03:11:47;97165.38;;;5.21;72.39
35649;BME280;21768;48.562;13.414;2022-12-07T03:14:21;97163.13;;;5.13;72.63
35649;BME280;21768;48.562;13.414;2022-12-07T03:17:09;97158.63;;;5.09;72.60
35649;BME280;21768;48.562;13.414;2022-12-07T03:19:38;97153.00;;;5.12;72.68
35649;BME280;21768;48.562;13.414;2022-12-07T03:22:09;97166.88;;;5.08;72.57
35649;BME280;21768;48.562;13.414;2022-12-07T03:24:51;97158.38;;;5.06;72.65
35649;BME280;21768;48.562;13.414;2022-12-07T03:27:50;97162.38;;;5.04;72.56
35649;BME280;21768;48.562;13.414;2022-12-07T03:30:28;97172.13;;;5.01;72.60
35649;BME280;21768;48.562;13.414;2022-12-07T03:35:43;97149.38;;;4.98;72.66
35649;BME280;21768;48.562;13.414;2022-12-07T03:38:19;97158.16;;;4.93;72.72
35649;BME280;21768;48.562;13.414;2022-12-07T03:40:56;97153.63;;;4.89;72.59
35649;BME280;21768;48.562;13.414;2022-12-07T03:43:23;97162.75;;;4.89;72.73
35649;BME280;21768;48.562;13.414;2022-12-07T03:46:06;97154.00;;;4.84;72.84
35649;BME280;21768;48.562;13.414;2022-12-07T03:51:46;97153.63;;;4.79;72.76
35649;BME280;21768;48.562;13.414;2022-12-07T03:54:17;97164.38;;;4.78;72.78
35649;BME280;21768;48.562;13.414;2022-12-07T03:56:45;97145.88;;;4.76;72.87
35649;BME280;21768;48.562;13.414;2022-12-07T03:59:13;97157.63;;;4.77;72.92
35649;BME280;21768;48.562;13.414;2022-12-07T04:01:42;97159.84;;;4.74;73.00
35649;BME280;21768;48.562;13.414;2022-12-07T04:04:07;97153.09;;;4.73;73.06
35649;BME280;21768;48.562;13.414;2022-12-07T04:06:33;97151.63;;;4.75;73.18
35649;BME280;21768;48.562;13.414;2022-12-07T04:08:58;97157.13;;;4.81;72.96
35649;BME280;21768;48.562;13.414;2022-12-07T04:11:24;97157.75;;;4.78;72.82
35649;BME280;21768;48.562;13.414;2022-12-07T04:13:49;97146.63;;;4.75;72.98
35649;BME280;21768;48.562;13.414;2022-12-07T04:16:33;97164.09;;;4.75;72.58
35649;BME280;21768;48.562;13.414;2022-12-07T04:18:58;97164.72;;;4.72;72.93
35649;BME280;21768;48.562;13.414;2022-12-07T04:21:24;97158.09;;;4.73;72.91
35649;BME280;21768;48.562;13.414;2022-12-07T04:23:49;97149.13;;;4.75;72.90
35649;BME280;21768;48.562;13.414;2022-12-07T04:26:14;97155.13;;;4.77;72.92
35649;BME280;21768;48.562;13.414;2022-12-07T04:28:40;97152.63;;;4.77;72.81
35649;BME280;21768;48.562;13.414;2022-12-07T04:31:05;97159.09;;;4.75;72.92
35649;BME280;21768;48.562;13.414;2022-12-07T04:33:30;97149.88;;;4.74;72.53
35649;BME280;21768;48.562;13.414;2022-12-07T04:35:56;97154.38;;;4.78;72.74
35649;BME280;21768;48.562;13.414;2022-12-07T04:38:21;97151.38;;;4.82;72.93
35649;BME280;21768;48.562;13.414;2022-12-07T04:40:46;97144.63;;;4.81;72.80
35649;BME280;21768;48.562;13.414;2022-12-07T04:43:12;97149.88;;;4.84;72.56
35649;BME280;21768;48.562;13.414;2022-12-07T04:45:37;97138.13;;;4.83;72.18
35649;BME280;21768;48.562;13.414;2022-12-07T04:48:03;97146.63;;;4.75;72.36
35649;BME280;21768;48.562;13.414;2022-12-07T04:50:28;97149.72;;;4.72;71.92
35649;BME280;21768;48.562;13.414;2022-12-07T04:52:53;97154.13;;;4.75;72.12
35649;BME280;21768;48.562;13.414;2022-12-07T04:55:19;97147.38;;;4.74;72.07
35649;BME280;21768;48.562;13.414;2022-12-07T04:57:44;97144.13;;;4.75;72.22
35649;BME280;21768;48.562;13.414;2022-12-07T05:00:10;97151.88;;;4.78;72.50
35649;BME280;21768;48.562;13.414;2022-12-07T05:02:35;97151.13;;;4.79;72.25
35649;BME280;21768;48.562;13.414;2022-12-07T05:05:01;97152.88;;;4.80;72.15
35649;BME280;21768;48.562;13.414;2022-12-07T05:07:26;97152.88;;;4.80;71.32
35649;BME280;21768;48.562;13.414;2022-12-07T05:09:51;97154.63;;;4.81;71.56
35649;BME280;21768;48.562;13.414;2022-12-07T05:12:17;97158.13;;;4.83;71.83
35649;BME280;21768;48.562;13.414;2022-12-07T05:14:42;97139.88;;;4.84;71.69
35649;BME280;21768;48.562;13.414;2022-12-07T05:17:08;97147.88;;;4.80;70.91
35649;BME280;21768;48.562;13.414;2022-12-07T05:19:33;97150.88;;;4.76;71.27
35649;BME280;21768;48.562;13.414;2022-12-07T05:21:58;97153.25;;;4.74;71.09
35649;BME280;21768;48.562;13.414;2022-12-07T05:24:24;97150.88;;;4.76;71.14
35649;BME280;21768;48.562;13.414;2022-12-07T05:26:49;97144.88;;;4.74;71.30
35649;BME280;21768;48.562;13.414;2022-12-07T05:29:16;97159.09;;;4.75;71.31
35649;BME280;21768;48.562;13.414;2022-12-07T05:31:42;97152.50;;;4.75;71.02
35649;BME280;21768;48.562;13.414;2022-12-07T05:34:08;97166.75;;;4.76;71.04
35649;BME280;21768;48.562;13.414;2022-12-07T05:36:33;97165.84;;;4.76;71.08
35649;BME280;21768;48.562;13.414;2022-12-07T05:38:58;97166.34;;;4.72;70.60
35649;BME280;21768;48.562;13.414;2022-12-07T05:41:24;97162.97;;;4.71;70.86
35649;BME280;21768;48.562;13.414;2022-12-07T05:44:08;97162.34;;;4.74;70.84
35649;BME280;21768;48.562;13.414;2022-12-07T05:46:33;97171.34;;;4.72;70.72
35649;BME280;21768;48.562;13.414;2022-12-07T05:48:59;97166.88;;;4.68;70.68
35649;BME280;21768;48.562;13.414;2022-12-07T05:51:25;97166.63;;;4.65;70.49
35649;BME280;21768;48.562;13.414;2022-12-07T05:53:50;97167.50;;;4.65;70.52
35649;BME280;21768;48.562;13.414;2022-12-07T05:56:16;97151.88;;;4.68;70.56
35649;BME280;21768;48.562;13.414;2022-12-07T05:58:41;97153.84;;;4.72;70.85
35649;BME280;21768;48.562;13.414;2022-12-07T06:01:25;97152.09;;;4.71;71.11
35649;BME280;21768;48.562;13.414;2022-12-07T06:03:50;97156.47;;;4.73;70.76
35649;BME280;21768;48.562;13.414;2022-12-07T06:06:16;97155.59;;;4.73;70.72
35649;BME280;21768;48.562;13.414;2022-12-07T06:08:41;97153.84;;;4.72;70.58
35649;BME280;21768;48.562;13.414;2022-12-07T06:11:06;97152.34;;;4.74;70.44
35649;BME280;21768;48.562;13.414;2022-12-07T06:13:50;97145.38;;;4.70;70.31
35649;BME280;21768;48.562;13.414;2022-12-07T06:16:16;97148.63;;;4.69;70.52
35649;BME280;21768;48.562;13.414;2022-12-07T06:18:41;97161.00;;;4.67;70.33
35649;BME280;21768;48.562;13.414;2022-12-07T06:21:07;97169.84;;;4.64;70.31
35649;BME280;21768;48.562;13.414;2022-12-07T06:23:32;97166.84;;;4.58;70.24
35649;BME280;21768;48.562;13.414;2022-12-07T06:25:57;97173.59;;;4.59;70.47
35649;BME280;21768;48.562;13.414;2022-12-07T06:28:23;97177.31;;;4.54;70.38
35649;BME280;21768;48.562;13.414;2022-12-07T06:30:57;97181.19;;;4.50;70.58
35649;BME280;21768;48.562;13.414;2022-12-07T06:33:22;97185.44;;;4.51;70.58
35649;BME280;21768;48.562;13.414;2022-12-07T06:35:47;97180.44;;;4.51;70.64
35649;BME280;21768;48.562;13.414;2022-12-07T06:38:13;97169.56;;;4.51;70.82
35649;BME280;21768;48.562;13.414;2022-12-07T06:40:38;97173.56;;;4.49;70.81
35649;BME280;21768;48.562;13.414;2022-12-07T06:43:03;97176.06;;;4.49;70.94
35649;BME280;21768;48.562;13.414;2022-12-07T06:45:29;97183.81;;;4.52;70.78
35649;BME280;21768;48.562;13.414;2022-12-07T06:47:54;97188.06;;;4.53;70.79
35649;BME280;21768;48.562;13.414;2022-12-07T06:50:19;97183.44;;;4.57;70.70
35649;BME280;21768;48.562;13.414;2022-12-07T06:52:45;97190.31;;;4.60;70.67
35649;BME280;21768;48.562;13.414;2022-12-07T06:55:10;97178.97;;;4.63;70.47
35649;BME280;21768;48.562;13.414;2022-12-07T06:57:36;97184.09;;;4.65;70.24
35649;BME280;21768;48.562;13.414;2022-12-07T07:00:03;97186.34;;;4.62;70.55
35649;BME280;21768;48.562;13.414;2022-12-07T07:02:28;97188.84;;;4.62;70.71
35649;BME280;21768;48.562;13.414;2022-12-07T07:04:54;97186.94;;;4.59;71.10
35649;BME280;21768;48.562;13.414;2022-12-07T07:07:19;97179.84;;;4.64;70.96
35649;BME280;21768;48.562;13.414;2022-12-07T07:09:45;97187.47;;;4.65;71.09
35649;BME280;21768;48.562;13.414;2022-12-07T07:12:10;97186.59;;;4.65;70.85
35649;BME280;21768;48.562;13.414;2022-12-07T07:14:35;97196.47;;;4.63;70.83
35649;BME280;21768;48.562;13.414;2022-12-07T07:17:01;97199.31;;;4.58;70.75
35649;BME280;21768;48.562;13.414;2022-12-07T07:19:27;97190.69;;;4.54;70.84
35649;BME280;21768;48.562;13.414;2022-12-07T07:21:52;97191.16;;;4.50;70.82
35649;BME280;21768;48.562;13.414;2022-12-07T07:24:17;97200.03;;;4.47;70.89
35649;BME280;21768;48.562;13.414;2022-12-07T07:26:43;97201.63;;;4.46;70.90
35649;BME280;21768;48.562;13.414;2022-12-07T07:29:08;97202.41;;;4.45;71.08
35649;BME280;21768;48.562;13.414;2022-12-07T07:31:33;97204.25;;;4.37;71.21
35649;BME280;21768;48.562;13.414;2022-12-07T07:34:00;97203.13;;;4.34;71.19
35649;BME280;21768;48.562;13.414;2022-12-07T07:36:26;97209.34;;;4.29;71.39
35649;BME280;21768;48.562;13.414;2022-12-07T07:38:51;97212.44;;;4.26;71.51
35649;BME280;21768;48.562;13.414;2022-12-07T07:41:17;97213.78;;;4.23;71.34
35649;BME280;21768;48.562;13.414;2022-12-07T07:43:42;97216.66;;;4.17;71.58
35649;BME280;21768;48.562;13.414;2022-12-07T07:46:07;97215.78;;;4.17;71.59
35649;BME280;21768;48.562;13.414;2022-12-07T07:48:33;97219.16;;;4.17;71.86
35649;BME280;21768;48.562;13.414;2022-12-07T07:50:59;97221.66;;;4.17;71.64
35649;BME280;21768;48.562;13.414;2022-12-07T07:53:24;97219.16;;;4.17;71.85
35649;BME280;21768;48.562;13.414;2022-12-07T07:55:51;97219.16;;;4.17;71.85
35649;BME280;21768;48.562;13.414;2022-12-07T07:58:17;97214.19;;;4.17;71.78
35649;BME280;21768;48.562;13.414;2022-12-07T08:00:43;97221.94;;;4.20;71.90
35649;BME280;21768;48.562;13.414;2022-12-07T08:03:08;97217.69;;;4.19;71.84
35649;BME280;21768;48.562;13.414;2022-12-07T08:05:33;97230.53;;;4.24;71.83
35649;BME280;21768;48.562;13.414;2022-12-07T08:07:59;97233.91;;;4.24;71.90
35649;BME280;21768;48.562;13.414;2022-12-07T08:10:24;97242.81;;;4.31;71.87
35649;BME280;21768;48.562;13.414;2022-12-07T08:12:49;97241.31;;;4.33;71.58
35649;BME280;21768;48.562;13.414;2022-12-07T08:15:36;97235.97;;;4.38;71.82
35649;BME280;21768;48.562;13.414;2022-12-07T08:18:02;97239.00;;;4.44;71.54
35649;BME280;21768;48.562;13.414;2022-12-07T08:20:30;97248.00;;;4.53;71.63
35649;BME280;21768;48.562;13.414;2022-12-07T08:22:55;97246.38;;;4.53;71.06
35649;BME280;21768;48.562;13.414;2022-12-07T08:25:21;97246.50;;;4.55;70.95
35649;BME280;21768;48.562;13.414;2022-12-07T08:27:47;97244.56;;;4.71;70.92
35649;BME280;21768;48.562;13.414;2022-12-07T08:30:13;97248.88;;;4.92;70.39
35649;BME280;21768;48.562;13.414;2022-12-07T08:32:39;97246.75;;;5.07;70.00
35649;BME280;21768;48.562;13.414;2022-12-07T08:35:04;97252.16;;;5.11;69.69
35649;BME280;21768;48.562;13.414;2022-12-07T08:37:31;97249.63;;;5.22;69.60
35649;BME280;21768;48.562;13.414;2022-12-07T08:39:56;97243.75;;;5.52;69.30
35649;BME280;21768;48.562;13.414;2022-12-07T08:42:22;97243.66;;;6.23;67.70
35649;BME280;21768;48.562;13.414;2022-12-07T08:44:48;97241.66;;;6.82;66.20
35649;BME280;21768;48.562;13.414;2022-12-07T08:47:14;97239.28;;;6.96;66.24
35649;BME280;21768;48.562;13.414;2022-12-07T08:49:41;97238.91;;;7.01;65.02
35649;BME280;21768;48.562;13.414;2022-12-07T08:52:08;97234.78;;;7.35;64.43
35649;BME280;21768;48.562;13.414;2022-12-07T08:54:36;97233.31;;;7.72;63.69
35649;BME280;21768;48.562;13.414;2022-12-07T08:57:04;97239.25;;;8.08;62.30
35649;BME280;21768;48.562;13.414;2022-12-07T08:59:30;97243.44;;;8.79;60.00
35649;BME280;21768;48.562;13.414;2022-12-07T09:01:56;97236.88;;;10.07;57.39
35649;BME280;21768;48.562;13.414;2022-12-07T09:04:21;97225.75;;;11.54;54.22
35649;BME280;21768;48.562;13.414;2022-12-07T09:06:47;97225.13;;;12.78;49.59
35649;BME280;21768;48.562;13.414;2022-12-07T09:09:13;97216.00;;;13.28;48.00
35649;BME280;21768;48.562;13.414;2022-12-07T09:11:39;97227.53;;;13.40;45.79
35649;BME280;21768;48.562;13.414;2022-12-07T09:14:05;97225.72;;;12.43;49.57
35649;BME280;21768;48.562;13.414;2022-12-07T09:16:30;97231.50;;;11.09;50.03
35649;BME280;21768;48.562;13.414;2022-12-07T09:18:56;97237.06;;;10.10;53.56
35649;BME280;21768;48.562;13.414;2022-12-07T09:21:21;97231.22;;;9.33;53.93
35649;BME280;21768;48.562;13.414;2022-12-07T09:23:47;97230.25;;;8.95;54.86
35649;BME280;21768;48.562;13.414;2022-12-07T09:26:12;97240.69;;;8.39;55.67
35649;BME280;21768;48.562;13.414;2022-12-07T09:28:39;97243.94;;;8.03;56.99
35649;BME280;21768;48.562;13.414;2022-12-07T09:31:05;97249.13;;;7.71;57.76
35649;BME280;21768;48.562;13.414;2022-12-07T09:33:31;97255.94;;;7.39;58.96
35649;BME280;21768;48.562;13.414;2022-12-07T09:35:57;97247.13;;;7.10;59.83
35649;BME280;21768;48.562;13.414;2022-12-07T09:38:23;97255.44;;;6.99;60.16
35649;BME280;21768;48.562;13.414;2022-12-07T09:40:52;97246.25;;;6.88;60.00
35649;BME280;21768;48.562;13.414;2022-12-07T09:43:23;97244.03;;;6.81;60.28
35649;BME280;21768;48.562;13.414;2022-12-07T09:45:54;97240.81;;;6.72;60.48
35649;BME280;21768;48.562;13.414;2022-12-07T09:48:24;97239.38;;;6.64;60.95
35649;BME280;21768;48.562;13.414;2022-12-07T09:50:52;97245.13;;;6.63;61.23
35649;BME280;21768;48.562;13.414;2022-12-07T09:53:24;97242.44;;;6.49;61.68
35649;BME280;21768;48.562;13.414;2022-12-07T09:55:51;97249.88;;;6.38;61.23
35649;BME280;21768;48.562;13.414;2022-12-07T09:58:21;97233.97;;;6.37;61.67
35649;BME280;21768;48.562;13.414;2022-12-07T10:00:49;97238.47;;;6.41;61.96
35649;BME280;21768;48.562;13.414;2022-12-07T10:03:15;97235.97;;;6.41;62.02
35649;BME280;21768;48.562;13.414;2022-12-07T10:05:46;97228.47;;;6.41;62.48
35649;BME280;21768;48.562;13.414;2022-12-07T10:08:14;97226.72;;;6.40;62.05
35649;BME280;21768;48.562;13.414;2022-12-07T10:10:43;97224.19;;;6.40;61.61
35649;BME280;21768;48.562;13.414;2022-12-07T10:13:18;97214.19;;;6.40;61.65
35649;BME280;21768;48.562;13.414;2022-12-07T10:21:15;97218.03;;;6.69;62.76
35649;BME280;21768;48.562;13.414;2022-12-07T10:24:05;97213.84;;;6.79;62.16
35649;BME280;21768;48.562;13.414;2022-12-07T10:29:17;97206.00;;;7.20;61.21
35649;BME280;21768;48.562;13.414;2022-12-07T10:31:46;97204.09;;;7.28;61.18
35649;BME280;21768;48.562;13.414;2022-12-07T10:37:11;97196.25;;;7.35;60.63
35649;BME280;21768;48.562;13.414;2022-12-07T10:42:22;97192.56;;;7.41;60.63
35649;BME280;21768;48.562;13.414;2022-12-07T10:44:49;97190.28;;;7.56;60.43
35649;BME280;21768;48.562;13.414;2022-12-07T10:47:20;97188.88;;;7.71;60.49
35649;BME280;21768;48.562;13.414;2022-12-07T10:50:14;97186.94;;;7.91;59.86
35649;BME280;21768;48.562;13.414;2022-12-07T10:52:45;97186.03;;;8.02;59.81
35649;BME280;21768;48.562;13.414;2022-12-07T11:00:37;97179.94;;;7.87;59.12
35649;BME280;21768;48.562;13.414;2022-12-07T11:03:20;97180.03;;;7.76;59.00
35649;BME280;21768;48.562;13.414;2022-12-07T11:11:26;97173.41;;;7.89;57.13
35649;BME280;21768;48.562;13.414;2022-12-07T11:22:08;97169.44;;;7.92;57.56
35649;BME280;21768;48.562;13.414;2022-12-07T11:27:18;97168.91;;;7.84;56.92
35649;BME280;21768;48.562;13.414;2022-12-07T11:29:54;97177.31;;;7.73;56.28
35649;BME280;21768;48.562;13.414;2022-12-07T11:35:26;97169.44;;;7.57;57.56
35649;BME280;21768;48.562;13.414;2022-12-07T11:38:00;97163.34;;;7.65;56.84
35649;BME280;21768;48.562;13.414;2022-12-07T11:40:28;97164.00;;;7.74;56.96
35649;BME280;21768;48.562;13.414;2022-12-07T11:43:15;97171.66;;;7.64;55.93
35649;BME280;21768;48.562;13.414;2022-12-07T11:45:47;97163.88;;;7.49;56.01
35649;BME280;21768;48.562;13.414;2022-12-07T11:48:17;97163.88;;;7.49;56.15
35649;BME280;21768;48.562;13.414;2022-12-07T11:50:54;97161.13;;;7.46;56.23
35649;BME280;21768;48.562;13.414;2022-12-07T11:53:33;97164.19;;;7.54;57.21
35649;BME280;21768;48.562;13.414;2022-12-07T11:56:17;97151.97;;;7.47;56.55
35649;BME280;21768;48.562;13.414;2022-12-07T12:01:39;97147.28;;;7.51;57.35
35649;BME280;21768;48.562;13.414;2022-12-07T12:06:44;97143.44;;;7.68;56.27
35649;BME280;21768;48.562;13.414;2022-12-07T12:15:20;97133.44;;;7.57;55.46
35649;BME280;21768;48.562;13.414;2022-12-07T12:17:58;97128.53;;;7.58;56.56
35649;BME280;21768;48.562;13.414;2022-12-07T12:23:21;97126.00;;;7.70;56.60
35649;BME280;21768;48.562;13.414;2022-12-07T12:25:50;97128.09;;;7.64;55.98
35649;BME280;21768;48.562;13.414;2022-12-07T12:28:28;97121.63;;;7.56;56.64
35649;BME280;21768;48.562;13.414;2022-12-07T12:33:35;97123.06;;;7.40;56.10
35649;BME280;21768;48.562;13.414;2022-12-07T12:36:24;97125.78;;;7.32;56.77
35649;BME280;21768;48.562;13.414;2022-12-07T12:47:10;97118.13;;;7.30;57.39
35649;BME280;21768;48.562;13.414;2022-12-07T12:50:21;97122.03;;;7.27;57.29
35649;BME280;21768;48.562;13.414;2022-12-07T12:55:20;97121.78;;;7.00;57.76
35649;BME280;21768;48.562;13.414;2022-12-07T13:00:46;97115.47;;;7.05;58.90
35649;BME280;21768;48.562;13.414;2022-12-07T13:03:27;97107.84;;;7.04;58.73
35649;BME280;21768;48.562;13.414;2022-12-07T13:08:54;97107.38;;;6.86;59.46
35649;BME280;21768;48.562;13.414;2022-12-07T13:11:41;97112.91;;;6.82;60.07
35649;BME280;21768;48.562;13.414;2022-12-07T13:20:01;97104.06;;;6.75;60.82
35649;BME280;21768;48.562;13.414;2022-12-07T13:25:02;97100.88;;;6.66;60.98
35649;BME280;21768;48.562;13.414;2022-12-07T13:27:28;97104.25;;;6.67;60.98
35649;BME280;21768;48.562;13.414;2022-12-07T13:29:56;97109.03;;;6.64;61.21
35649;BME280;21768;48.562;13.414;2022-12-07T13:32:27;97103.56;;;6.58;61.30
35649;BME280;21768;48.562;13.414;2022-12-07T13:34:53;97088.28;;;6.55;61.21
35649;BME280;21768;48.562;13.414;2022-12-07T13:37:27;97093.53;;;6.58;61.29
35649;BME280;21768;48.562;13.414;2022-12-07T13:42:29;97092.78;;;6.59;61.18
35649;BME280;21768;48.562;13.414;2022-12-07T13:44:55;97093.78;;;6.61;60.66
35649;BME280;21768;48.562;13.414;2022-12-07T13:47:29;97089.75;;;6.63;60.40
35649;BME280;21768;48.562;13.414;2022-12-07T13:49:56;97091.16;;;6.59;60.46
35649;BME280;21768;48.562;13.414;2022-12-07T13:52:30;97087.06;;;6.49;61.41
35649;BME280;21768;48.562;13.414;2022-12-07T13:55:01;97084.88;;;6.42;60.73
35649;BME280;21768;48.562;13.414;2022-12-07T13:57:28;97101.47;;;6.30;61.11
35649;BME280;21768;48.562;13.414;2022-12-07T13:59:56;97095.59;;;6.30;61.08
35649;BME280;21768;48.562;13.414;2022-12-07T14:02:29;97094.97;;;6.32;61.93
35649;BME280;21768;48.562;13.414;2022-12-07T14:11:01;97093.22;;;6.31;61.45
35649;BME280;21768;48.562;13.414;2022-12-07T14:13:37;97092.75;;;6.25;61.31
35649;BME280;21768;48.562;13.414;2022-12-07T14:18:53;97094.78;;;6.19;61.49
35649;BME280;21768;48.562;13.414;2022-12-07T14:21:21;97089.44;;;6.14;61.55
35649;BME280;21768;48.562;13.414;2022-12-07T14:24:16;97088.56;;;6.14;62.01
35649;BME280;21768;48.562;13.414;2022-12-07T14:26:43;97090.06;;;6.12;61.76
35649;BME280;21768;48.562;13.414;2022-12-07T14:29:30;97086.28;;;6.17;61.72
35649;BME280;21768;48.562;13.414;2022-12-07T14:31:57;97089.75;;;6.19;61.70
35649;BME280;21768;48.562;13.414;2022-12-07T14:34:24;97086.41;;;6.19;61.83
35649;BME280;21768;48.562;13.414;2022-12-07T14:36:50;97081.81;;;6.13;61.65
35649;BME280;21768;48.562;13.414;2022-12-07T14:39:16;97081.84;;;6.03;61.95
35649;BME280;21768;48.562;13.414;2022-12-07T14:41:41;97081.31;;;6.07;62.63
35649;BME280;21768;48.562;13.414;2022-12-07T14:44:17;97076.78;;;6.13;62.60
35649;BME280;21768;48.562;13.414;2022-12-07T14:46:43;97072.66;;;6.13;62.65
35649;BME280;21768;48.562;13.414;2022-12-07T14:49:08;97081.81;;;6.13;63.09
35649;BME280;21768;48.562;13.414;2022-12-07T14:51:36;97074.44;;;6.04;63.52
35649;BME280;21768;48.562;13.414;2022-12-07T14:54:04;97078.59;;;6.04;63.35
35649;BME280;21768;48.562;13.414;2022-12-07T14:56:30;97078.59;;;6.04;63.64
35649;BME280;21768;48.562;13.414;2022-12-07T14:58:55;97076.09;;;6.04;63.75
35649;BME280;21768;48.562;13.414;2022-12-07T15:01:21;97066.06;;;6.04;63.74
35649;BME280;21768;48.562;13.414;2022-12-07T15:03:46;97073.06;;;6.08;63.78